createdAt,value
2022-08-17T00:02:20.173Z,99.90
2022-08-17T00:04:52.568Z,99.90
2022-08-17T00:07:19.424Z,99.90
2022-08-17T00:09:46.309Z,99.90
2022-08-17T00:12:42.766Z,99.90
2022-08-17T00:15:00.136Z,99.90
2022-08-17T00:17:26.954Z,99.90
2022-08-17T00:19:53.702Z,99.90
2022-08-17T00:22:34.758Z,99.90
2022-08-17T00:25:07.451Z,99.90
2022-08-17T00:27:34.652Z,99.90
2022-08-17T00:30:01.426Z,99.90
2022-08-17T00:33:16.083Z,99.90
2022-08-17T00:35:19.365Z,99.90
2022-08-17T00:37:46.116Z,99.90
2022-08-17T00:40:15.054Z,99.90
2022-08-17T00:42:43.499Z,99.90
2022-08-17T00:45:13.119Z,99.90
2022-08-17T00:47:40.268Z,99.90
2022-08-17T00:50:12.117Z,99.90
2022-08-17T00:52:52.511Z,99.90
2022-08-17T00:55:20.061Z,99.90
2022-08-17T00:57:55.140Z,99.90
2022-08-17T01:00:34.065Z,99.90
2022-08-17T01:03:06.414Z,99.90
2022-08-17T01:05:35.232Z,99.90
2022-08-17T01:08:02.693Z,99.90
2022-08-17T01:10:58.482Z,99.90
2022-08-17T01:13:27.706Z,99.90
2022-08-17T01:16:04.197Z,99.90
2022-08-17T01:18:32.184Z,99.90
2022-08-17T01:21:04.473Z,99.90
2022-08-17T01:23:31.251Z,99.90
2022-08-17T01:26:01.839Z,99.90
2022-08-17T01:28:36.401Z,99.90
2022-08-17T01:31:19.491Z,99.90
2022-08-17T01:33:46.385Z,99.90
2022-08-17T01:36:13.398Z,99.90
2022-08-17T01:38:40.442Z,99.90
2022-08-17T01:41:12.441Z,99.90
2022-08-17T01:44:04.113Z,99.90
2022-08-17T01:46:33.940Z,99.90
2022-08-17T01:49:05.192Z,99.90
2022-08-17T01:51:32.815Z,99.90
2022-08-17T01:54:05.223Z,99.90
2022-08-17T01:56:33.928Z,99.90
2022-08-17T01:59:00.740Z,99.90
2022-08-17T02:01:30.228Z,99.90
2022-08-17T02:04:01.194Z,99.90
2022-08-17T02:06:30.551Z,99.90
2022-08-17T02:09:02.245Z,99.90
2022-08-17T02:11:32.252Z,99.90
2022-08-17T02:14:03.749Z,99.90
2022-08-17T02:16:38.937Z,99.90
2022-08-17T02:19:08.077Z,99.90
2022-08-17T02:21:36.418Z,99.90
2022-08-17T02:24:04.436Z,99.90
2022-08-17T02:26:31.269Z,99.90
2022-08-17T02:28:57.998Z,99.90
2022-08-17T02:31:24.770Z,99.90
2022-08-17T02:33:56.677Z,99.90
2022-08-17T02:36:31.887Z,99.90
2022-08-17T02:38:58.754Z,99.90
2022-08-17T02:41:25.688Z,99.90
2022-08-17T02:43:53.541Z,99.90
2022-08-17T02:46:20.310Z,99.90
2022-08-17T02:48:47.393Z,99.90
2022-08-17T02:51:14.710Z,99.90
2022-08-17T02:53:41.464Z,99.90
2022-08-17T02:56:08.306Z,99.90
2022-08-17T02:58:36.172Z,99.90
2022-08-17T03:01:06.325Z,99.90
2022-08-17T03:03:33.880Z,99.90
2022-08-17T03:06:01.408Z,99.90
2022-08-17T03:08:28.481Z,99.90
2022-08-17T03:10:55.917Z,99.90
2022-08-17T03:13:23.129Z,99.90
2022-08-17T03:15:50.385Z,99.90
2022-08-17T03:18:25.557Z,99.90
2022-08-17T03:20:55.115Z,99.90
2022-08-17T03:23:24.299Z,99.90
2022-08-17T03:25:53.515Z,99.90
2022-08-17T03:28:22.349Z,99.90
2022-08-17T03:30:51.020Z,99.90
2022-08-17T03:33:18.721Z,99.90
2022-08-17T03:35:45.678Z,99.90
2022-08-17T03:38:15.932Z,99.90
2022-08-17T03:40:56.625Z,99.90
2022-08-17T03:43:30.258Z,99.90
2022-08-17T03:46:32.494Z,99.90
2022-08-17T03:49:23.338Z,99.90
2022-08-17T03:52:08.731Z,99.90
2022-08-17T03:54:54.186Z,99.90
2022-08-17T03:57:21.056Z,99.90
2022-08-17T03:59:47.985Z,99.90
2022-08-17T04:02:21.370Z,99.90
2022-08-17T04:04:50.777Z,99.90
2022-08-17T04:07:19.558Z,99.90
2022-08-17T04:09:46.312Z,99.90
2022-08-17T04:12:16.105Z,99.90
2022-08-17T04:14:53.223Z,99.90
2022-08-17T04:17:28.926Z,99.90
2022-08-17T04:19:56.807Z,99.90
2022-08-17T04:22:30.009Z,99.90
2022-08-17T04:24:59.218Z,99.90
2022-08-17T04:27:25.966Z,99.90
2022-08-17T04:29:54.625Z,99.90
2022-08-17T04:32:59.190Z,99.90
2022-08-17T04:35:10.214Z,99.90
2022-08-17T04:37:38.079Z,99.90
2022-08-17T04:40:25.920Z,99.90
2022-08-17T04:43:05.727Z,99.90
2022-08-17T04:45:32.875Z,99.90
2022-08-17T04:48:00.956Z,99.90
2022-08-17T04:50:27.994Z,99.90
2022-08-17T04:52:55.126Z,99.90
2022-08-17T04:55:22.144Z,99.90
2022-08-17T04:57:48.970Z,99.90
2022-08-17T05:00:15.923Z,99.90
2022-08-17T05:02:51.008Z,99.90
2022-08-17T05:05:22.167Z,99.90
2022-08-17T05:07:52.411Z,99.90
2022-08-17T05:10:20.132Z,99.90
2022-08-17T05:12:47.044Z,99.90
2022-08-17T05:15:16.138Z,99.90
2022-08-17T05:17:43.859Z,99.90
2022-08-17T05:20:11.331Z,99.90
2022-08-17T05:22:49.302Z,99.90
2022-08-17T05:25:22.553Z,99.90
2022-08-17T05:27:53.236Z,99.90
2022-08-17T05:30:20.556Z,99.90
2022-08-17T05:32:55.431Z,99.90
2022-08-17T05:35:24.024Z,91.70
2022-08-17T05:37:50.868Z,81.90
2022-08-17T05:40:19.015Z,72.80
2022-08-17T05:42:45.830Z,63.90
2022-08-17T05:45:15.687Z,58.20
2022-08-17T05:47:44.509Z,52.50
2022-08-17T05:50:27.003Z,49.30
2022-08-17T05:53:24.367Z,45.20
2022-08-17T05:55:57.721Z,43.60
2022-08-17T05:59:02.643Z,40.60
2022-08-17T06:01:41.341Z,38.90
2022-08-17T06:04:16.055Z,37.80
2022-08-17T06:06:56.389Z,36.40
2022-08-17T06:09:31.518Z,35.30
2022-08-17T06:12:08.068Z,34.70
2022-08-17T06:15:07.380Z,33.60
2022-08-17T06:17:34.643Z,32.40
2022-08-17T06:20:11.719Z,32.40
2022-08-17T06:22:45.172Z,31.70
2022-08-17T06:25:23.493Z,30.80
2022-08-17T06:27:58.356Z,30.00
2022-08-17T06:30:28.660Z,29.20
2022-08-17T06:33:26.780Z,29.30
2022-08-17T06:36:09.656Z,28.00
2022-08-17T06:38:56.192Z,27.30
2022-08-17T06:41:57.197Z,27.60
2022-08-17T06:44:51.997Z,27.30
2022-08-17T06:47:36.252Z,26.10
2022-08-17T06:50:21.788Z,26.60
2022-08-17T06:53:04.548Z,25.60
2022-08-17T06:55:46.573Z,25.10
2022-08-17T06:58:16.481Z,24.80
2022-08-17T07:00:46.985Z,25.10
2022-08-17T07:03:25.841Z,24.50
2022-08-17T07:05:57.178Z,24.00
2022-08-17T07:08:35.098Z,24.20
2022-08-17T07:11:06.672Z,23.30
2022-08-17T07:13:51.788Z,23.90
2022-08-17T07:16:30.976Z,23.00
2022-08-17T07:18:59.978Z,23.20
2022-08-17T07:21:41.842Z,23.70
2022-08-17T07:24:29.976Z,23.90
2022-08-17T07:27:24.899Z,23.80
2022-08-17T07:29:56.864Z,23.90
2022-08-17T07:32:28.339Z,24.60
2022-08-17T07:35:11.126Z,24.10
2022-08-17T07:37:43.606Z,24.20
2022-08-17T07:40:19.403Z,24.00
2022-08-17T07:43:21.803Z,24.30
2022-08-17T07:46:29.831Z,24.20
2022-08-17T07:49:24.426Z,24.10
2022-08-17T07:51:51.110Z,23.30
2022-08-17T07:54:27.663Z,24.10
2022-08-17T07:56:59.943Z,23.80
2022-08-17T07:59:33.468Z,23.80
2022-08-17T08:02:14.787Z,23.90
2022-08-17T08:05:00.703Z,23.50
2022-08-17T08:07:50.326Z,23.30
2022-08-17T08:10:17.208Z,23.40
2022-08-17T08:13:05.680Z,23.70
2022-08-17T08:15:53.799Z,23.60
2022-08-17T08:18:55.715Z,24.10
2022-08-17T08:22:01.380Z,23.80
2022-08-17T08:24:37.004Z,24.20
2022-08-17T08:27:38.465Z,24.30
2022-08-17T08:30:08.025Z,24.00
2022-08-17T08:32:57.577Z,23.80
2022-08-17T08:35:48.637Z,23.30
2022-08-17T08:38:34.523Z,23.40
2022-08-17T08:41:19.999Z,23.60
2022-08-17T08:44:00.751Z,24.00
2022-08-17T08:46:39.505Z,25.20
2022-08-17T08:49:59.545Z,24.50
2022-08-17T08:53:10.715Z,24.90
2022-08-17T08:56:01.530Z,23.80
2022-08-17T08:58:49.160Z,24.30
2022-08-17T09:01:28.085Z,24.60
2022-08-17T09:04:23.234Z,25.30
2022-08-17T09:07:15.248Z,25.10
2022-08-17T09:09:59.003Z,25.50
2022-08-17T09:12:29.818Z,25.10
2022-08-17T09:15:16.825Z,25.60
2022-08-17T09:18:21.387Z,25.60
2022-08-17T09:21:35.007Z,25.10
2022-08-17T09:24:11.272Z,25.10
2022-08-17T09:26:48.384Z,25.30
2022-08-17T09:29:17.421Z,25.80
2022-08-17T09:31:57.076Z,25.90
2022-08-17T09:34:35.088Z,26.50
2022-08-17T09:37:10.879Z,26.50
2022-08-17T09:39:45.567Z,26.90
2022-08-17T09:42:23.644Z,26.10
2022-08-17T09:45:22.322Z,26.60
2022-08-17T09:47:53.701Z,26.10
2022-08-17T09:51:04.960Z,26.10
2022-08-17T09:53:17.544Z,25.80
2022-08-17T09:55:58.451Z,26.00
2022-08-17T09:58:56.384Z,26.20
2022-08-17T10:01:47.515Z,27.00
2022-08-17T10:04:58.594Z,27.10
2022-08-17T10:07:46.635Z,26.30
2022-08-17T10:10:26.272Z,28.10
2022-08-17T10:12:59.486Z,28.90
2022-08-17T10:15:29.058Z,28.90
2022-08-17T10:18:08.503Z,28.20
2022-08-17T10:20:49.748Z,27.50
2022-08-17T10:23:47.730Z,27.40
2022-08-17T10:26:24.796Z,27.50
2022-08-17T10:29:48.490Z,28.00
2022-08-17T10:32:38.167Z,27.80
2022-08-17T10:35:25.892Z,28.00
2022-08-17T10:38:34.563Z,28.30
2022-08-17T10:41:01.242Z,28.60
2022-08-17T10:43:44.715Z,30.00
2022-08-17T10:47:06.402Z,29.60
2022-08-17T10:49:36.084Z,30.60
2022-08-17T10:52:25.003Z,30.90
2022-08-17T10:54:56.694Z,32.50
2022-08-17T10:57:28.368Z,33.20
2022-08-17T10:59:57.319Z,33.60
2022-08-17T11:02:31.477Z,33.80
2022-08-17T11:05:01.264Z,34.10
2022-08-17T11:07:49.885Z,33.90
2022-08-17T11:10:35.188Z,34.80
2022-08-17T11:13:11.175Z,35.90
2022-08-17T11:16:06.231Z,36.80
2022-08-17T11:19:08.605Z,38.10
2022-08-17T11:22:00.096Z,41.60
2022-08-17T11:24:49.119Z,40.70
2022-08-17T11:27:27.683Z,41.40
2022-08-17T11:30:05.625Z,41.10
2022-08-17T11:32:47.755Z,41.30
2022-08-17T11:35:21.203Z,42.10
2022-08-17T11:38:02.388Z,42.20
2022-08-17T11:41:02.682Z,42.50
2022-08-17T11:43:32.485Z,41.70
2022-08-17T11:46:06.989Z,42.50
2022-08-17T11:49:06.489Z,41.90
2022-08-17T11:52:01.317Z,42.10
2022-08-17T11:54:33.819Z,41.80
2022-08-17T11:57:27.064Z,42.30
2022-08-17T12:00:00.279Z,42.60
2022-08-17T12:02:31.433Z,42.80
2022-08-17T12:05:24.715Z,43.00
2022-08-17T12:08:29.351Z,42.90
2022-08-17T12:12:11.042Z,43.50
2022-08-17T12:14:20.136Z,44.50
2022-08-17T12:17:05.629Z,44.20
2022-08-17T12:19:33.992Z,44.30
2022-08-17T12:22:13.831Z,44.40
2022-08-17T12:25:10.876Z,42.90
2022-08-17T12:28:04.306Z,43.00
2022-08-17T12:30:32.208Z,43.40
2022-08-17T12:32:59.008Z,43.60
2022-08-17T12:35:35.487Z,43.40
2022-08-17T12:38:03.325Z,42.80
2022-08-17T12:40:32.376Z,43.20
2022-08-17T12:43:06.596Z,42.50
2022-08-17T12:45:36.737Z,42.70
2022-08-17T12:48:07.635Z,42.60
2022-08-17T12:50:39.704Z,43.20
2022-08-17T12:53:26.713Z,44.60
2022-08-17T12:55:54.832Z,43.00
2022-08-17T12:58:25.231Z,43.00
2022-08-17T13:01:07.783Z,41.80
2022-08-17T13:03:44.516Z,41.50
2022-08-17T13:06:14.707Z,41.70
2022-08-17T13:08:43.070Z,42.60
2022-08-17T13:11:18.247Z,43.10
2022-08-17T13:13:49.107Z,41.70
2022-08-17T13:16:20.525Z,42.00
2022-08-17T13:18:52.175Z,41.90
2022-08-17T13:21:18.960Z,42.70
2022-08-17T13:23:55.911Z,42.60
2022-08-17T13:26:29.489Z,41.80
2022-08-17T13:28:56.623Z,42.20
2022-08-17T13:31:51.774Z,40.70
2022-08-17T13:34:19.374Z,39.70
2022-08-17T13:36:48.884Z,40.40
2022-08-17T13:39:20.686Z,41.60
2022-08-17T13:41:48.792Z,41.80
2022-08-17T13:44:37.272Z,41.80
2022-08-17T13:47:15.335Z,42.40
2022-08-17T13:49:48.965Z,41.70
2022-08-17T13:52:37.909Z,39.40
2022-08-17T13:55:18.368Z,38.30
2022-08-17T13:57:48.117Z,37.70
2022-08-17T14:00:34.091Z,37.60
2022-08-17T14:03:03.869Z,38.10
2022-08-17T14:05:32.034Z,37.50
2022-08-17T14:08:06.433Z,37.30
2022-08-17T14:10:36.173Z,38.30
2022-08-17T14:13:03.395Z,38.00
2022-08-17T14:15:56.243Z,39.20
2022-08-17T14:18:31.147Z,38.40
2022-08-17T14:21:08.327Z,37.90
2022-08-17T14:23:36.669Z,38.20
2022-08-17T14:26:04.347Z,37.30
2022-08-17T14:28:31.136Z,37.40
2022-08-17T14:31:00.329Z,37.40
2022-08-17T14:33:28.633Z,38.30
2022-08-17T14:35:57.409Z,37.10
2022-08-17T14:38:24.307Z,37.40
2022-08-17T14:40:51.076Z,37.90
2022-08-17T14:43:18.497Z,38.20
2022-08-17T14:45:45.225Z,38.30
2022-08-17T14:48:11.972Z,38.10
2022-08-17T14:50:41.538Z,38.90
2022-08-17T14:53:10.932Z,38.70
2022-08-17T14:55:40.406Z,39.00
2022-08-17T14:58:08.753Z,38.50
2022-08-17T15:00:35.545Z,38.00
2022-08-17T15:03:03.107Z,38.60
2022-08-17T15:05:33.911Z,38.50
2022-08-17T15:08:01.716Z,38.00
2022-08-17T15:10:29.831Z,38.10
2022-08-17T15:12:56.692Z,37.70
2022-08-17T15:15:24.295Z,38.40
2022-08-17T15:17:51.664Z,38.40
2022-08-17T15:20:24.690Z,37.20
2022-08-17T15:22:55.322Z,37.10
2022-08-17T15:25:23.151Z,37.00
2022-08-17T15:27:50.180Z,37.30
2022-08-17T15:30:17.360Z,37.80
2022-08-17T15:32:50.702Z,37.70
2022-08-17T15:35:26.863Z,36.60
2022-08-17T15:37:54.581Z,36.50
2022-08-17T15:40:21.347Z,36.20
2022-08-17T15:42:48.132Z,36.30
2022-08-17T15:45:16.855Z,35.60
2022-08-17T15:47:43.703Z,34.90
2022-08-17T15:50:10.819Z,35.00
2022-08-17T15:52:40.363Z,35.60
2022-08-17T15:55:10.757Z,35.50
2022-08-17T15:57:37.609Z,35.80
2022-08-17T16:00:07.432Z,35.10
2022-08-17T16:03:44.312Z,35.70
2022-08-17T16:05:25.373Z,34.90
2022-08-17T16:07:53.272Z,34.40
2022-08-17T16:10:21.071Z,35.10
2022-08-17T16:12:49.612Z,35.40
2022-08-17T16:15:17.812Z,36.70
2022-08-17T16:17:44.712Z,38.10
2022-08-17T16:20:19.928Z,39.00
2022-08-17T16:22:49.142Z,39.40
2022-08-17T16:25:21.640Z,40.20
2022-08-17T16:27:53.460Z,40.30
2022-08-17T16:30:23.215Z,40.60
2022-08-17T16:32:54.140Z,40.90
2022-08-17T16:35:25.168Z,41.60
2022-08-17T16:37:55.425Z,41.60
2022-08-17T16:40:27.652Z,42.20
2022-08-17T16:42:55.528Z,41.90
2022-08-17T16:45:26.175Z,41.90
2022-08-17T16:47:55.076Z,41.60
2022-08-17T16:50:23.868Z,42.10
2022-08-17T16:52:51.321Z,41.70
2022-08-17T16:55:20.788Z,42.10
2022-08-17T16:57:50.095Z,42.60
2022-08-17T17:00:19.310Z,42.40
2022-08-17T17:02:47.773Z,42.50
2022-08-17T17:05:26.296Z,42.80
2022-08-17T17:08:01.097Z,42.90
2022-08-17T17:10:42.148Z,43.30
2022-08-17T17:13:16.711Z,43.50
2022-08-17T17:16:00.761Z,43.30
2022-08-17T17:18:41.427Z,43.30
2022-08-17T17:21:16.895Z,43.50
2022-08-17T17:23:48.296Z,43.80
2022-08-17T17:26:44.655Z,43.80
2022-08-17T17:29:47.842Z,43.90
2022-08-17T17:32:39.894Z,44.40
2022-08-17T17:35:32.704Z,44.10
2022-08-17T17:38:11.017Z,44.10
2022-08-17T17:40:48.235Z,44.10
2022-08-17T17:43:38.312Z,44.50
2022-08-17T17:46:26.873Z,44.50
2022-08-17T17:48:55.199Z,45.10
2022-08-17T17:52:05.247Z,45.30
2022-08-17T17:54:43.896Z,45.80
2022-08-17T17:57:28.901Z,46.10
2022-08-17T18:00:20.102Z,46.30
2022-08-17T18:03:16.713Z,46.60
2022-08-17T18:05:55.353Z,47.80
2022-08-17T18:08:38.440Z,47.80
2022-08-17T18:11:07.911Z,47.70
2022-08-17T18:13:53.850Z,48.10
2022-08-17T18:16:20.617Z,48.00
2022-08-17T18:18:49.983Z,48.70
2022-08-17T18:21:21.357Z,49.40
2022-08-17T18:23:56.180Z,48.80
2022-08-17T18:26:56.570Z,49.00
2022-08-17T18:29:32.387Z,49.10
2022-08-17T18:32:11.578Z,49.90
2022-08-17T18:34:47.209Z,49.90
2022-08-17T18:37:47.195Z,51.40
2022-08-17T18:40:17.071Z,51.90
2022-08-17T18:42:58.908Z,52.40
2022-08-17T18:45:46.833Z,53.20
2022-08-17T18:48:54.527Z,54.20
2022-08-17T18:51:43.248Z,55.00
2022-08-17T18:54:22.723Z,56.00
2022-08-17T18:56:49.440Z,56.20
2022-08-17T18:59:28.019Z,56.70
2022-08-17T19:02:22.041Z,57.30
2022-08-17T19:05:24.024Z,57.90
2022-08-17T19:07:51.010Z,59.20
2022-08-17T19:10:46.354Z,60.00
2022-08-17T19:13:15.779Z,60.70
2022-08-17T19:16:05.316Z,61.30
2022-08-17T19:19:03.697Z,62.10
2022-08-17T19:21:36.539Z,62.30
2022-08-17T19:24:19.547Z,64.00
2022-08-17T19:26:56.539Z,64.60
2022-08-17T19:29:46.949Z,64.80
2022-08-17T19:32:18.027Z,65.00
2022-08-17T19:34:44.895Z,66.60
2022-08-17T19:37:32.795Z,67.00
2022-08-17T19:40:52.347Z,66.70
2022-08-17T19:43:28.632Z,68.20
2022-08-17T19:46:15.749Z,70.10
2022-08-17T19:49:00.960Z,70.80
2022-08-17T19:51:28.165Z,72.00
2022-08-17T19:54:31.022Z,74.60
2022-08-17T19:57:12.292Z,75.30
2022-08-17T20:00:01.211Z,75.70
2022-08-17T20:02:42.204Z,76.50
2022-08-17T20:05:16.506Z,76.90
2022-08-17T20:07:52.687Z,77.70
2022-08-17T20:10:45.225Z,78.60
2022-08-17T20:13:33.195Z,80.00
2022-08-17T20:16:01.692Z,81.30
2022-08-17T20:18:34.205Z,82.90
2022-08-17T20:21:30.862Z,84.10
2022-08-17T20:24:23.157Z,85.10
2022-08-17T20:27:14.772Z,85.50
2022-08-17T20:30:19.299Z,85.80
2022-08-17T20:32:48.997Z,86.80
2022-08-17T20:35:18.644Z,88.60
2022-08-17T20:38:08.651Z,89.20
2022-08-17T20:41:02.481Z,90.30
2022-08-17T20:43:45.576Z,90.60
2022-08-17T20:46:36.412Z,91.50
2022-08-17T20:49:19.439Z,92.20
2022-08-17T20:52:02.561Z,92.60
2022-08-17T20:54:48.081Z,92.90
2022-08-17T20:57:45.673Z,93.70
2022-08-17T21:00:27.742Z,94.40
2022-08-17T21:03:23.391Z,94.30
2022-08-17T21:06:16.820Z,94.50
2022-08-17T21:08:53.171Z,94.80
2022-08-17T21:12:03.350Z,95.00
2022-08-17T21:14:32.733Z,94.60
2022-08-17T21:17:29.647Z,94.70
2022-08-17T21:20:11.603Z,94.40
2022-08-17T21:23:16.487Z,95.80
2022-08-17T21:26:09.536Z,95.70
2022-08-17T21:29:29.729Z,94.80
2022-08-17T21:32:01.848Z,94.80
2022-08-17T21:34:36.710Z,96.50
2022-08-17T21:37:26.056Z,96.90
2022-08-17T21:39:58.715Z,97.50
2022-08-17T21:42:32.056Z,97.80
2022-08-17T21:45:22.462Z,98.10
2022-08-17T21:47:50.362Z,98.50
2022-08-17T21:50:23.848Z,98.70
2022-08-17T21:52:54.054Z,98.90
2022-08-17T21:55:29.759Z,99.60
2022-08-17T21:58:13.371Z,99.90
2022-08-17T22:00:44.222Z,99.90
2022-08-17T22:03:23.742Z,99.90
2022-08-17T22:05:51.484Z,99.90
2022-08-17T22:08:21.911Z,99.90
2022-08-17T22:10:51.123Z,99.90
2022-08-17T22:13:17.979Z,99.90
2022-08-17T22:16:15.553Z,99.90
2022-08-17T22:18:57.964Z,99.90
2022-08-17T22:21:25.555Z,99.90
2022-08-17T22:24:06.141Z,99.90
2022-08-17T22:27:06.872Z,99.90
2022-08-17T22:29:58.576Z,99.90
2022-08-17T22:32:41.566Z,99.90
2022-08-17T22:35:34.847Z,99.90
2022-08-17T22:38:19.648Z,99.90
2022-08-17T22:41:13.721Z,99.90
2022-08-17T22:43:41.551Z,99.90
2022-08-17T22:46:12.462Z,99.90
2022-08-17T22:48:50.744Z,99.90
2022-08-17T22:51:29.232Z,99.90
2022-08-17T22:54:36.171Z,99.90
2022-08-17T22:57:23.120Z,99.90
2022-08-17T22:59:51.918Z,99.90
2022-08-17T23:02:27.950Z,99.90
2022-08-17T23:05:16.528Z,99.90
2022-08-17T23:07:46.032Z,99.90
2022-08-17T23:10:13.878Z,99.90
2022-08-17T23:12:41.202Z,99.90
2022-08-17T23:15:15.578Z,99.90
2022-08-17T23:17:42.878Z,99.90
2022-08-17T23:20:14.971Z,99.90
2022-08-17T23:22:51.115Z,99.90
2022-08-17T23:25:26.379Z,99.90
2022-08-17T23:27:53.322Z,99.90
2022-08-17T23:30:20.528Z,99.90
2022-08-17T23:32:53.164Z,99.90
2022-08-17T23:35:20.806Z,99.90
2022-08-17T23:38:10.776Z,99.90
2022-08-17T23:40:39.581Z,99.90
2022-08-17T23:43:17.410Z,99.90
2022-08-17T23:45:52.657Z,99.90
2022-08-17T23:48:35.173Z,99.90
2022-08-17T23:51:19.068Z,99.90
2022-08-17T23:53:49.988Z,99.90
2022-08-17T23:56:23.897Z,99.90
2022-08-17T23:58:51.449Z,99.90
